sensor_id;sensor_type;location;lat;lon;timestamp;P1;durP1;ratioP1;P2;durP2;ratioP2
57341;SDS011;43175;51.002;18.316;2023-03-05T00:01:29;15.00;;;5.10;;
57341;SDS011;43175;51.002;18.316;2023-03-05T00:03:57;12.90;;;3.90;;
57341;SDS011;43175;51.002;18.316;2023-03-05T00:06:24;12.70;;;3.60;;
57341;SDS011;43175;51.002;18.316;2023-03-05T00:08:51;11.10;;;3.40;;
57341;SDS011;43175;51.002;18.316;2023-03-05T00:11:17;11.80;;;3.30;;
57341;SDS011;43175;51.002;18.316;2023-03-05T00:13:44;14.10;;;4.00;;
57341;SDS011;43175;51.002;18.316;2023-03-05T00:16:11;17.50;;;4.60;;
57341;SDS011;43175;51.002;18.316;2023-03-05T00:18:38;13.50;;;4.40;;
57341;SDS011;43175;51.002;18.316;2023-03-05T00:21:04;14.40;;;4.60;;
57341;SDS011;43175;51.002;18.316;2023-03-05T00:23:30;12.50;;;4.20;;
57341;SDS011;43175;51.002;18.316;2023-03-05T00:25:56;14.40;;;4.30;;
57341;SDS011;43175;51.002;18.316;2023-03-05T00:28:25;12.70;;;4.50;;
57341;SDS011;43175;51.002;18.316;2023-03-05T00:30:51;12.00;;;3.90;;
57341;SDS011;43175;51.002;18.316;2023-03-05T00:33:16;12.30;;;4.40;;
57341;SDS011;43175;51.002;18.316;2023-03-05T00:35:43;12.10;;;4.40;;
57341;SDS011;43175;51.002;18.316;2023-03-05T00:38:10;12.40;;;4.20;;
57341;SDS011;43175;51.002;18.316;2023-03-05T00:40:36;13.60;;;4.80;;
57341;SDS011;43175;51.002;18.316;2023-03-05T00:43:04;14.80;;;4.70;;
57341;SDS011;43175;51.002;18.316;2023-03-05T00:45:30;17.80;;;5.70;;
57341;SDS011;43175;51.002;18.316;2023-03-05T00:47:56;15.90;;;5.50;;
57341;SDS011;43175;51.002;18.316;2023-03-05T00:50:22;17.00;;;6.10;;
57341;SDS011;43175;51.002;18.316;2023-03-05T00:52:47;15.00;;;5.40;;
57341;SDS011;43175;51.002;18.316;2023-03-05T00:55:13;15.80;;;5.50;;
57341;SDS011;43175;51.002;18.316;2023-03-05T00:57:38;16.70;;;5.80;;
57341;SDS011;43175;51.002;18.316;2023-03-05T01:00:05;15.90;;;5.60;;
57341;SDS011;43175;51.002;18.316;2023-03-05T01:02:31;14.60;;;5.80;;
57341;SDS011;43175;51.002;18.316;2023-03-05T01:04:57;17.00;;;5.80;;
57341;SDS011;43175;51.002;18.316;2023-03-05T01:07:22;15.40;;;5.30;;
57341;SDS011;43175;51.002;18.316;2023-03-05T01:09:48;16.90;;;6.10;;
57341;SDS011;43175;51.002;18.316;2023-03-05T01:12:14;20.60;;;6.20;;
57341;SDS011;43175;51.002;18.316;2023-03-05T01:14:39;15.30;;;5.60;;
57341;SDS011;43175;51.002;18.316;2023-03-05T01:17:05;16.50;;;5.60;;
57341;SDS011;43175;51.002;18.316;2023-03-05T01:19:30;14.90;;;5.60;;
57341;SDS011;43175;51.002;18.316;2023-03-05T01:21:56;15.40;;;5.90;;
57341;SDS011;43175;51.002;18.316;2023-03-05T01:24:22;15.30;;;5.30;;
57341;SDS011;43175;51.002;18.316;2023-03-05T01:26:47;17.00;;;5.40;;
57341;SDS011;43175;51.002;18.316;2023-03-05T01:29:14;17.10;;;5.50;;
57341;SDS011;43175;51.002;18.316;2023-03-05T01:31:40;15.10;;;5.40;;
57341;SDS011;43175;51.002;18.316;2023-03-05T01:34:05;13.70;;;4.80;;
57341;SDS011;43175;51.002;18.316;2023-03-05T01:36:31;16.60;;;5.90;;
57341;SDS011;43175;51.002;18.316;2023-03-05T01:38:57;15.30;;;5.60;;
57341;SDS011;43175;51.002;18.316;2023-03-05T01:41:22;16.10;;;5.90;;
57341;SDS011;43175;51.002;18.316;2023-03-05T01:43:48;19.20;;;6.90;;
57341;SDS011;43175;51.002;18.316;2023-03-05T01:54:18;21.70;;;8.10;;
57341;SDS011;43175;51.002;18.316;2023-03-05T01:56:46;20.50;;;7.70;;
57341;SDS011;43175;51.002;18.316;2023-03-05T01:59:13;20.30;;;8.60;;
57341;SDS011;43175;51.002;18.316;2023-03-05T02:01:40;19.30;;;7.70;;
57341;SDS011;43175;51.002;18.316;2023-03-05T02:04:09;15.90;;;6.40;;
57341;SDS011;43175;51.002;18.316;2023-03-05T02:06:37;16.90;;;6.50;;
57341;SDS011;43175;51.002;18.316;2023-03-05T02:09:03;15.80;;;5.90;;
57341;SDS011;43175;51.002;18.316;2023-03-05T02:11:30;17.20;;;6.10;;
57341;SDS011;43175;51.002;18.316;2023-03-05T02:13:57;16.30;;;5.60;;
57341;SDS011;43175;51.002;18.316;2023-03-05T02:16:22;16.60;;;5.70;;
57341;SDS011;43175;51.002;18.316;2023-03-05T02:18:48;15.00;;;5.10;;
57341;SDS011;43175;51.002;18.316;2023-03-05T02:21:14;16.80;;;5.20;;
57341;SDS011;43175;51.002;18.316;2023-03-05T02:23:52;14.90;;;5.40;;
57341;SDS011;43175;51.002;18.316;2023-03-05T02:26:18;16.60;;;5.70;;
57341;SDS011;43175;51.002;18.316;2023-03-05T02:28:52;13.70;;;4.90;;
57341;SDS011;43175;51.002;18.316;2023-03-05T02:31:19;15.60;;;5.10;;
57341;SDS011;43175;51.002;18.316;2023-03-05T02:33:46;13.30;;;4.70;;
57341;SDS011;43175;51.002;18.316;2023-03-05T02:36:12;13.10;;;4.60;;
57341;SDS011;43175;51.002;18.316;2023-03-05T02:38:40;12.10;;;4.40;;
57341;SDS011;43175;51.002;18.316;2023-03-05T02:41:07;12.20;;;4.10;;
57341;SDS011;43175;51.002;18.316;2023-03-05T02:43:33;12.10;;;4.20;;
57341;SDS011;43175;51.002;18.316;2023-03-05T02:45:58;13.80;;;4.50;;
57341;SDS011;43175;51.002;18.316;2023-03-05T02:48:24;13.50;;;4.30;;
57341;SDS011;43175;51.002;18.316;2023-03-05T02:50:50;14.10;;;4.40;;
57341;SDS011;43175;51.002;18.316;2023-03-05T02:53:16;13.30;;;4.70;;
57341;SDS011;43175;51.002;18.316;2023-03-05T02:55:41;14.50;;;4.10;;
57341;SDS011;43175;51.002;18.316;2023-03-05T02:58:11;12.10;;;3.90;;
57341;SDS011;43175;51.002;18.316;2023-03-05T03:00:36;12.60;;;4.20;;
57341;SDS011;43175;51.002;18.316;2023-03-05T03:03:02;12.30;;;3.80;;
57341;SDS011;43175;51.002;18.316;2023-03-05T03:05:28;11.80;;;3.90;;
57341;SDS011;43175;51.002;18.316;2023-03-05T03:07:53;10.10;;;2.90;;
57341;SDS011;43175;51.002;18.316;2023-03-05T03:10:19;9.90;;;3.00;;
57341;SDS011;43175;51.002;18.316;2023-03-05T03:12:44;8.30;;;2.60;;
57341;SDS011;43175;51.002;18.316;2023-03-05T03:15:11;9.50;;;3.10;;
57341;SDS011;43175;51.002;18.316;2023-03-05T03:17:39;12.10;;;3.10;;
57341;SDS011;43175;51.002;18.316;2023-03-05T03:20:06;10.10;;;2.90;;
57341;SDS011;43175;51.002;18.316;2023-03-05T03:22:33;12.40;;;3.30;;
57341;SDS011;43175;51.002;18.316;2023-03-05T03:24:59;10.90;;;3.30;;
57341;SDS011;43175;51.002;18.316;2023-03-05T03:27:25;11.90;;;3.70;;
57341;SDS011;43175;51.002;18.316;2023-03-05T03:29:51;13.20;;;4.30;;
57341;SDS011;43175;51.002;18.316;2023-03-05T03:32:16;10.30;;;3.70;;
57341;SDS011;43175;51.002;18.316;2023-03-05T03:34:42;11.70;;;3.40;;
57341;SDS011;43175;51.002;18.316;2023-03-05T03:37:09;12.00;;;3.50;;
57341;SDS011;43175;51.002;18.316;2023-03-05T03:39:35;12.10;;;3.50;;
57341;SDS011;43175;51.002;18.316;2023-03-05T03:42:00;15.90;;;5.80;;
57341;SDS011;43175;51.002;18.316;2023-03-05T03:44:26;16.20;;;7.20;;
57341;SDS011;43175;51.002;18.316;2023-03-05T03:46:52;11.90;;;4.80;;
57341;SDS011;43175;51.002;18.316;2023-03-05T03:49:20;11.50;;;3.70;;
57341;SDS011;43175;51.002;18.316;2023-03-05T03:51:47;12.80;;;4.50;;
57341;SDS011;43175;51.002;18.316;2023-03-05T03:54:15;10.60;;;3.70;;
57341;SDS011;43175;51.002;18.316;2023-03-05T03:56:41;11.50;;;4.10;;
57341;SDS011;43175;51.002;18.316;2023-03-05T03:59:07;10.90;;;3.90;;
57341;SDS011;43175;51.002;18.316;2023-03-05T04:01:33;9.90;;;3.40;;
57341;SDS011;43175;51.002;18.316;2023-03-05T04:03:59;10.70;;;3.50;;
57341;SDS011;43175;51.002;18.316;2023-03-05T04:06:25;10.90;;;4.10;;
57341;SDS011;43175;51.002;18.316;2023-03-05T04:08:51;13.20;;;5.00;;
57341;SDS011;43175;51.002;18.316;2023-03-05T04:11:17;11.00;;;4.00;;
57341;SDS011;43175;51.002;18.316;2023-03-05T04:13:46;9.80;;;3.00;;
57341;SDS011;43175;51.002;18.316;2023-03-05T04:16:12;13.90;;;3.90;;
57341;SDS011;43175;51.002;18.316;2023-03-05T04:18:38;14.30;;;3.50;;
57341;SDS011;43175;51.002;18.316;2023-03-05T04:21:04;10.30;;;2.80;;
57341;SDS011;43175;51.002;18.316;2023-03-05T04:23:30;11.80;;;3.10;;
57341;SDS011;43175;51.002;18.316;2023-03-05T04:25:56;14.10;;;3.90;;
57341;SDS011;43175;51.002;18.316;2023-03-05T04:28:22;10.00;;;2.90;;
57341;SDS011;43175;51.002;18.316;2023-03-05T04:30:48;10.50;;;3.30;;
57341;SDS011;43175;51.002;18.316;2023-03-05T04:33:13;15.00;;;5.00;;
57341;SDS011;43175;51.002;18.316;2023-03-05T04:35:39;18.30;;;6.30;;
57341;SDS011;43175;51.002;18.316;2023-03-05T04:38:04;14.10;;;5.30;;
57341;SDS011;43175;51.002;18.316;2023-03-05T04:40:30;14.10;;;5.00;;
57341;SDS011;43175;51.002;18.316;2023-03-05T04:42:55;22.90;;;9.00;;
57341;SDS011;43175;51.002;18.316;2023-03-05T04:45:21;16.60;;;6.00;;
57341;SDS011;43175;51.002;18.316;2023-03-05T04:47:47;12.90;;;4.00;;
57341;SDS011;43175;51.002;18.316;2023-03-05T04:50:12;10.60;;;3.30;;
57341;SDS011;43175;51.002;18.316;2023-03-05T04:52:39;12.00;;;3.40;;
57341;SDS011;43175;51.002;18.316;2023-03-05T04:55:06;11.20;;;3.30;;
57341;SDS011;43175;51.002;18.316;2023-03-05T04:57:32;11.50;;;3.20;;
57341;SDS011;43175;51.002;18.316;2023-03-05T04:59:58;11.20;;;3.50;;
57341;SDS011;43175;51.002;18.316;2023-03-05T05:02:24;11.90;;;4.20;;
57341;SDS011;43175;51.002;18.316;2023-03-05T05:04:53;15.10;;;5.70;;
57341;SDS011;43175;51.002;18.316;2023-03-05T05:07:19;15.80;;;6.40;;
57341;SDS011;43175;51.002;18.316;2023-03-05T05:09:45;12.50;;;4.40;;
57341;SDS011;43175;51.002;18.316;2023-03-05T05:12:11;12.40;;;4.50;;
57341;SDS011;43175;51.002;18.316;2023-03-05T05:14:36;16.80;;;7.80;;
57341;SDS011;43175;51.002;18.316;2023-03-05T05:17:02;15.20;;;4.50;;
57341;SDS011;43175;51.002;18.316;2023-03-05T05:19:31;13.80;;;5.00;;
57341;SDS011;43175;51.002;18.316;2023-03-05T05:21:57;17.60;;;6.40;;
57341;SDS011;43175;51.002;18.316;2023-03-05T05:24:23;13.60;;;5.10;;
57341;SDS011;43175;51.002;18.316;2023-03-05T05:26:49;11.60;;;3.90;;
57341;SDS011;43175;51.002;18.316;2023-03-05T05:29:15;12.50;;;4.60;;
57341;SDS011;43175;51.002;18.316;2023-03-05T05:31:41;13.20;;;4.80;;
57341;SDS011;43175;51.002;18.316;2023-03-05T05:34:07;12.40;;;4.00;;
57341;SDS011;43175;51.002;18.316;2023-03-05T05:36:32;15.70;;;5.10;;
57341;SDS011;43175;51.002;18.316;2023-03-05T05:38:58;14.50;;;4.70;;
57341;SDS011;43175;51.002;18.316;2023-03-05T05:41:24;13.60;;;5.20;;
57341;SDS011;43175;51.002;18.316;2023-03-05T05:43:49;14.10;;;4.70;;
57341;SDS011;43175;51.002;18.316;2023-03-05T05:46:16;14.20;;;4.80;;
57341;SDS011;43175;51.002;18.316;2023-03-05T05:48:43;14.50;;;4.40;;
57341;SDS011;43175;51.002;18.316;2023-03-05T05:51:10;14.50;;;5.50;;
57341;SDS011;43175;51.002;18.316;2023-03-05T05:53:39;15.00;;;6.50;;
57341;SDS011;43175;51.002;18.316;2023-03-05T05:56:06;18.70;;;9.10;;
57341;SDS011;43175;51.002;18.316;2023-03-05T05:58:33;15.30;;;6.90;;
57341;SDS011;43175;51.002;18.316;2023-03-05T06:01:00;14.60;;;6.60;;
57341;SDS011;43175;51.002;18.316;2023-03-05T06:03:27;13.70;;;5.00;;
57341;SDS011;43175;51.002;18.316;2023-03-05T06:05:53;11.40;;;4.20;;
57341;SDS011;43175;51.002;18.316;2023-03-05T06:08:20;12.60;;;4.50;;
57341;SDS011;43175;51.002;18.316;2023-03-05T06:10:52;17.30;;;6.80;;
57341;SDS011;43175;51.002;18.316;2023-03-05T06:13:18;14.80;;;6.20;;
57341;SDS011;43175;51.002;18.316;2023-03-05T06:15:44;18.30;;;6.90;;
57341;SDS011;43175;51.002;18.316;2023-03-05T06:18:10;18.70;;;7.00;;
57341;SDS011;43175;51.002;18.316;2023-03-05T06:20:35;25.70;;;12.50;;
57341;SDS011;43175;51.002;18.316;2023-03-05T06:23:01;25.90;;;14.00;;
57341;SDS011;43175;51.002;18.316;2023-03-05T06:25:27;22.50;;;10.60;;
57341;SDS011;43175;51.002;18.316;2023-03-05T06:27:52;21.40;;;10.00;;
57341;SDS011;43175;51.002;18.316;2023-03-05T06:30:18;29.60;;;15.30;;
57341;SDS011;43175;51.002;18.316;2023-03-05T06:32:44;87.10;;;50.00;;
57341;SDS011;43175;51.002;18.316;2023-03-05T06:35:09;233.80;;;97.00;;
57341;SDS011;43175;51.002;18.316;2023-03-05T06:37:35;351.50;;;163.60;;
57341;SDS011;43175;51.002;18.316;2023-03-05T06:40:00;205.10;;;109.10;;
57341;SDS011;43175;51.002;18.316;2023-03-05T06:42:26;196.10;;;84.00;;
57341;SDS011;43175;51.002;18.316;2023-03-05T06:44:52;127.40;;;70.70;;
57341;SDS011;43175;51.002;18.316;2023-03-05T06:47:17;67.20;;;32.40;;
57341;SDS011;43175;51.002;18.316;2023-03-05T06:49:43;26.90;;;13.80;;
57341;SDS011;43175;51.002;18.316;2023-03-05T06:52:09;19.70;;;9.50;;
57341;SDS011;43175;51.002;18.316;2023-03-05T06:54:37;20.70;;;9.00;;
57341;SDS011;43175;51.002;18.316;2023-03-05T06:57:02;31.30;;;13.20;;
57341;SDS011;43175;51.002;18.316;2023-03-05T06:59:28;189.30;;;57.30;;
57341;SDS011;43175;51.002;18.316;2023-03-05T07:01:54;105.70;;;35.30;;
57341;SDS011;43175;51.002;18.316;2023-03-05T07:04:19;99.20;;;30.10;;
57341;SDS011;43175;51.002;18.316;2023-03-05T07:06:44;49.80;;;14.10;;
57341;SDS011;43175;51.002;18.316;2023-03-05T07:09:12;27.90;;;8.20;;
57341;SDS011;43175;51.002;18.316;2023-03-05T07:11:39;29.30;;;9.40;;
57341;SDS011;43175;51.002;18.316;2023-03-05T07:14:05;39.10;;;12.50;;
57341;SDS011;43175;51.002;18.316;2023-03-05T07:16:31;36.00;;;13.50;;
57341;SDS011;43175;51.002;18.316;2023-03-05T07:18:58;41.50;;;12.70;;
57341;SDS011;43175;51.002;18.316;2023-03-05T07:21:26;49.00;;;15.70;;
57341;SDS011;43175;51.002;18.316;2023-03-05T07:23:53;45.40;;;15.50;;
57341;SDS011;43175;51.002;18.316;2023-03-05T07:26:20;40.50;;;12.40;;
57341;SDS011;43175;51.002;18.316;2023-03-05T07:28:46;52.10;;;9.80;;
57341;SDS011;43175;51.002;18.316;2023-03-05T07:31:13;33.00;;;8.00;;
57341;SDS011;43175;51.002;18.316;2023-03-05T07:33:41;22.00;;;6.70;;
57341;SDS011;43175;51.002;18.316;2023-03-05T07:36:07;46.90;;;12.50;;
57341;SDS011;43175;51.002;18.316;2023-03-05T07:38:33;24.60;;;6.40;;
57341;SDS011;43175;51.002;18.316;2023-03-05T07:41:02;19.50;;;7.50;;
57341;SDS011;43175;51.002;18.316;2023-03-05T07:43:32;19.50;;;9.80;;
57341;SDS011;43175;51.002;18.316;2023-03-05T07:45:57;49.30;;;20.40;;
57341;SDS011;43175;51.002;18.316;2023-03-05T07:48:23;54.10;;;22.30;;
57341;SDS011;43175;51.002;18.316;2023-03-05T07:50:49;40.20;;;16.20;;
57341;SDS011;43175;51.002;18.316;2023-03-05T07:53:15;108.70;;;29.00;;
57341;SDS011;43175;51.002;18.316;2023-03-05T07:55:44;44.20;;;13.50;;
57341;SDS011;43175;51.002;18.316;2023-03-05T07:58:12;30.70;;;8.50;;
57341;SDS011;43175;51.002;18.316;2023-03-05T08:00:38;59.60;;;19.40;;
57341;SDS011;43175;51.002;18.316;2023-03-05T08:03:04;49.70;;;20.50;;
57341;SDS011;43175;51.002;18.316;2023-03-05T08:05:30;93.50;;;32.00;;
57341;SDS011;43175;51.002;18.316;2023-03-05T08:07:56;98.50;;;35.60;;
57341;SDS011;43175;51.002;18.316;2023-03-05T08:10:22;88.50;;;33.20;;
57341;SDS011;43175;51.002;18.316;2023-03-05T08:12:48;85.30;;;30.60;;
57341;SDS011;43175;51.002;18.316;2023-03-05T08:15:13;40.60;;;19.40;;
57341;SDS011;43175;51.002;18.316;2023-03-05T08:17:39;28.90;;;12.40;;
57341;SDS011;43175;51.002;18.316;2023-03-05T08:20:04;29.10;;;11.00;;
57341;SDS011;43175;51.002;18.316;2023-03-05T08:22:35;36.80;;;11.90;;
57341;SDS011;43175;51.002;18.316;2023-03-05T08:25:01;44.00;;;15.50;;
57341;SDS011;43175;51.002;18.316;2023-03-05T08:27:28;83.60;;;26.90;;
57341;SDS011;43175;51.002;18.316;2023-03-05T08:29:53;57.80;;;22.20;;
57341;SDS011;43175;51.002;18.316;2023-03-05T08:32:19;35.70;;;13.90;;
57341;SDS011;43175;51.002;18.316;2023-03-05T08:34:45;29.00;;;10.50;;
57341;SDS011;43175;51.002;18.316;2023-03-05T08:37:10;28.60;;;13.20;;
57341;SDS011;43175;51.002;18.316;2023-03-05T08:39:35;21.60;;;10.70;;
57341;SDS011;43175;51.002;18.316;2023-03-05T08:42:02;21.30;;;10.10;;
57341;SDS011;43175;51.002;18.316;2023-03-05T08:44:28;21.30;;;8.90;;
57341;SDS011;43175;51.002;18.316;2023-03-05T08:46:54;21.30;;;9.30;;
57341;SDS011;43175;51.002;18.316;2023-03-05T08:49:19;20.50;;;8.70;;
57341;SDS011;43175;51.002;18.316;2023-03-05T08:51:45;25.60;;;11.80;;
57341;SDS011;43175;51.002;18.316;2023-03-05T08:54:10;24.80;;;13.10;;
57341;SDS011;43175;51.002;18.316;2023-03-05T08:56:36;30.40;;;14.80;;
57341;SDS011;43175;51.002;18.316;2023-03-05T08:59:02;26.40;;;13.60;;
57341;SDS011;43175;51.002;18.316;2023-03-05T09:01:29;26.70;;;14.30;;
57341;SDS011;43175;51.002;18.316;2023-03-05T09:03:57;27.80;;;13.80;;
57341;SDS011;43175;51.002;18.316;2023-03-05T09:06:23;35.90;;;19.60;;
57341;SDS011;43175;51.002;18.316;2023-03-05T09:08:49;28.20;;;14.60;;
57341;SDS011;43175;51.002;18.316;2023-03-05T09:11:15;27.70;;;13.80;;
57341;SDS011;43175;51.002;18.316;2023-03-05T09:13:40;23.40;;;11.00;;
57341;SDS011;43175;51.002;18.316;2023-03-05T09:16:07;26.00;;;11.90;;
57341;SDS011;43175;51.002;18.316;2023-03-05T09:18:35;27.90;;;11.90;;
57341;SDS011;43175;51.002;18.316;2023-03-05T09:21:08;28.80;;;13.30;;
57341;SDS011;43175;51.002;18.316;2023-03-05T09:23:35;30.60;;;14.60;;
57341;SDS011;43175;51.002;18.316;2023-03-05T09:26:01;28.60;;;14.70;;
57341;SDS011;43175;51.002;18.316;2023-03-05T09:28:30;26.30;;;13.40;;
57341;SDS011;43175;51.002;18.316;2023-03-05T09:30:55;25.70;;;11.90;;
57341;SDS011;43175;51.002;18.316;2023-03-05T09:33:20;25.00;;;12.00;;
57341;SDS011;43175;51.002;18.316;2023-03-05T09:35:46;27.60;;;11.70;;
57341;SDS011;43175;51.002;18.316;2023-03-05T09:38:13;21.80;;;10.50;;
57341;SDS011;43175;51.002;18.316;2023-03-05T09:40:44;24.80;;;10.50;;
57341;SDS011;43175;51.002;18.316;2023-03-05T09:46:17;21.60;;;8.60;;
57341;SDS011;43175;51.002;18.316;2023-03-05T09:51:34;20.30;;;8.50;;
57341;SDS011;43175;51.002;18.316;2023-03-05T09:54:04;20.40;;;8.20;;
57341;SDS011;43175;51.002;18.316;2023-03-05T09:56:33;21.70;;;7.80;;
57341;SDS011;43175;51.002;18.316;2023-03-05T09:59:02;20.80;;;7.10;;
57341;SDS011;43175;51.002;18.316;2023-03-05T10:01:36;18.50;;;6.80;;
57341;SDS011;43175;51.002;18.316;2023-03-05T10:04:14;19.20;;;6.90;;
57341;SDS011;43175;51.002;18.316;2023-03-05T10:06:56;18.50;;;6.30;;
57341;SDS011;43175;51.002;18.316;2023-03-05T10:09:29;21.00;;;7.40;;
57341;SDS011;43175;51.002;18.316;2023-03-05T10:12:12;15.50;;;5.50;;
57341;SDS011;43175;51.002;18.316;2023-03-05T10:14:39;15.30;;;6.00;;
57341;SDS011;43175;51.002;18.316;2023-03-05T10:19:54;13.90;;;4.30;;
57341;SDS011;43175;51.002;18.316;2023-03-05T10:22:55;16.40;;;5.90;;
57341;SDS011;43175;51.002;18.316;2023-03-05T10:37:01;15.30;;;6.40;;
57341;SDS011;43175;51.002;18.316;2023-03-05T10:44:55;11.60;;;3.20;;
57341;SDS011;43175;51.002;18.316;2023-03-05T10:47:27;12.70;;;3.60;;
57341;SDS011;43175;51.002;18.316;2023-03-05T10:49:56;15.70;;;4.50;;
57341;SDS011;43175;51.002;18.316;2023-03-05T10:55:20;16.30;;;6.10;;
57341;SDS011;43175;51.002;18.316;2023-03-05T10:57:47;13.40;;;5.60;;
57341;SDS011;43175;51.002;18.316;2023-03-05T11:00:17;14.90;;;5.70;;
57341;SDS011;43175;51.002;18.316;2023-03-05T11:02:59;15.30;;;5.20;;
57341;SDS011;43175;51.002;18.316;2023-03-05T11:08:20;15.20;;;6.40;;
57341;SDS011;43175;51.002;18.316;2023-03-05T11:11:03;13.90;;;4.60;;
57341;SDS011;43175;51.002;18.316;2023-03-05T11:13:29;15.70;;;5.50;;
57341;SDS011;43175;51.002;18.316;2023-03-05T11:16:02;14.00;;;5.30;;
57341;SDS011;43175;51.002;18.316;2023-03-05T11:18:32;13.80;;;5.00;;
57341;SDS011;43175;51.002;18.316;2023-03-05T11:21:06;14.70;;;4.90;;
57341;SDS011;43175;51.002;18.316;2023-03-05T11:23:37;14.20;;;5.20;;
57341;SDS011;43175;51.002;18.316;2023-03-05T11:28:40;13.00;;;5.40;;
57341;SDS011;43175;51.002;18.316;2023-03-05T11:31:21;14.00;;;5.40;;
57341;SDS011;43175;51.002;18.316;2023-03-05T11:33:53;12.40;;;5.60;;
57341;SDS011;43175;51.002;18.316;2023-03-05T11:36:23;14.40;;;5.70;;
57341;SDS011;43175;51.002;18.316;2023-03-05T11:38:55;16.00;;;6.20;;
57341;SDS011;43175;51.002;18.316;2023-03-05T11:44:46;13.90;;;5.50;;
57341;SDS011;43175;51.002;18.316;2023-03-05T11:47:19;14.60;;;5.50;;
57341;SDS011;43175;51.002;18.316;2023-03-05T11:49:54;15.60;;;4.50;;
57341;SDS011;43175;51.002;18.316;2023-03-05T11:52:26;11.20;;;4.60;;
57341;SDS011;43175;51.002;18.316;2023-03-05T11:55:03;16.70;;;6.80;;
57341;SDS011;43175;51.002;18.316;2023-03-05T11:57:35;10.90;;;4.10;;
57341;SDS011;43175;51.002;18.316;2023-03-05T12:00:06;14.20;;;4.30;;
57341;SDS011;43175;51.002;18.316;2023-03-05T12:02:38;13.80;;;5.30;;
57341;SDS011;43175;51.002;18.316;2023-03-05T12:05:05;11.50;;;4.20;;
57341;SDS011;43175;51.002;18.316;2023-03-05T12:07:36;13.70;;;4.70;;
57341;SDS011;43175;51.002;18.316;2023-03-05T12:10:05;13.40;;;4.50;;
57341;SDS011;43175;51.002;18.316;2023-03-05T12:15:30;16.90;;;5.30;;
57341;SDS011;43175;51.002;18.316;2023-03-05T12:23:05;16.00;;;5.80;;
57341;SDS011;43175;51.002;18.316;2023-03-05T12:33:42;19.00;;;7.00;;
57341;SDS011;43175;51.002;18.316;2023-03-05T12:38:52;11.20;;;3.20;;
57341;SDS011;43175;51.002;18.316;2023-03-05T12:51:54;10.80;;;3.60;;
57341;SDS011;43175;51.002;18.316;2023-03-05T12:56:59;11.90;;;3.40;;
57341;SDS011;43175;51.002;18.316;2023-03-05T12:59:36;12.00;;;3.20;;
57341;SDS011;43175;51.002;18.316;2023-03-05T13:05:19;9.60;;;3.30;;
57341;SDS011;43175;51.002;18.316;2023-03-05T13:08:03;10.90;;;3.20;;
57341;SDS011;43175;51.002;18.316;2023-03-05T13:10:53;9.80;;;3.30;;
57341;SDS011;43175;51.002;18.316;2023-03-05T13:13:22;12.50;;;4.20;;
57341;SDS011;43175;51.002;18.316;2023-03-05T13:15:50;13.30;;;4.00;;
57341;SDS011;43175;51.002;18.316;2023-03-05T13:18:20;11.90;;;3.50;;
57341;SDS011;43175;51.002;18.316;2023-03-05T13:20:47;13.20;;;4.70;;
57341;SDS011;43175;51.002;18.316;2023-03-05T13:26:23;10.30;;;3.40;;
57341;SDS011;43175;51.002;18.316;2023-03-05T13:34:14;15.80;;;6.30;;
57341;SDS011;43175;51.002;18.316;2023-03-05T13:36:46;13.80;;;5.20;;
57341;SDS011;43175;51.002;18.316;2023-03-05T13:39:16;17.10;;;6.30;;
57341;SDS011;43175;51.002;18.316;2023-03-05T13:41:53;16.70;;;6.00;;
57341;SDS011;43175;51.002;18.316;2023-03-05T13:44:21;16.50;;;5.80;;
57341;SDS011;43175;51.002;18.316;2023-03-05T13:46:46;14.80;;;6.00;;
57341;SDS011;43175;51.002;18.316;2023-03-05T13:49:17;14.10;;;5.80;;
57341;SDS011;43175;51.002;18.316;2023-03-05T13:51:48;17.30;;;8.20;;
57341;SDS011;43175;51.002;18.316;2023-03-05T13:54:16;17.70;;;7.40;;
57341;SDS011;43175;51.002;18.316;2023-03-05T13:56:55;14.90;;;6.30;;
57341;SDS011;43175;51.002;18.316;2023-03-05T13:59:24;14.20;;;6.30;;
57341;SDS011;43175;51.002;18.316;2023-03-05T14:01:52;16.80;;;7.20;;
57341;SDS011;43175;51.002;18.316;2023-03-05T14:04:22;18.10;;;7.50;;
57341;SDS011;43175;51.002;18.316;2023-03-05T14:06:57;20.20;;;9.40;;
57341;SDS011;43175;51.002;18.316;2023-03-05T14:09:28;17.30;;;6.60;;
57341;SDS011;43175;51.002;18.316;2023-03-05T14:11:57;18.10;;;8.60;;
57341;SDS011;43175;51.002;18.316;2023-03-05T14:14:25;22.30;;;8.80;;
57341;SDS011;43175;51.002;18.316;2023-03-05T14:16:51;22.80;;;9.40;;
57341;SDS011;43175;51.002;18.316;2023-03-05T14:19:50;22.30;;;9.10;;
57341;SDS011;43175;51.002;18.316;2023-03-05T14:22:27;20.40;;;7.80;;
57341;SDS011;43175;51.002;18.316;2023-03-05T14:24:54;20.10;;;9.30;;
57341;SDS011;43175;51.002;18.316;2023-03-05T14:27:20;17.80;;;6.60;;
57341;SDS011;43175;51.002;18.316;2023-03-05T14:29:46;16.30;;;6.50;;
57341;SDS011;43175;51.002;18.316;2023-03-05T14:32:23;17.80;;;8.30;;
57341;SDS011;43175;51.002;18.316;2023-03-05T14:34:55;18.40;;;8.20;;
57341;SDS011;43175;51.002;18.316;2023-03-05T14:39:58;22.30;;;9.60;;
57341;SDS011;43175;51.002;18.316;2023-03-05T14:45:21;24.10;;;8.40;;
57341;SDS011;43175;51.002;18.316;2023-03-05T14:47:58;23.80;;;10.90;;
57341;SDS011;43175;51.002;18.316;2023-03-05T14:50:27;18.80;;;9.00;;
57341;SDS011;43175;51.002;18.316;2023-03-05T14:52:56;21.90;;;10.60;;
57341;SDS011;43175;51.002;18.316;2023-03-05T14:55:24;18.60;;;10.10;;
57341;SDS011;43175;51.002;18.316;2023-03-05T14:57:56;18.60;;;9.20;;
57341;SDS011;43175;51.002;18.316;2023-03-05T15:00:26;17.00;;;7.10;;
57341;SDS011;43175;51.002;18.316;2023-03-05T15:02:53;20.80;;;10.50;;
57341;SDS011;43175;51.002;18.316;2023-03-05T15:05:19;27.90;;;13.00;;
57341;SDS011;43175;51.002;18.316;2023-03-05T15:07:45;17.00;;;8.20;;
57341;SDS011;43175;51.002;18.316;2023-03-05T15:10:13;18.80;;;8.00;;
57341;SDS011;43175;51.002;18.316;2023-03-05T15:12:40;18.40;;;8.20;;
57341;SDS011;43175;51.002;18.316;2023-03-05T15:15:07;14.30;;;5.60;;
57341;SDS011;43175;51.002;18.316;2023-03-05T15:17:34;14.60;;;5.20;;
57341;SDS011;43175;51.002;18.316;2023-03-05T15:20:01;14.70;;;5.00;;
57341;SDS011;43175;51.002;18.316;2023-03-05T15:22:32;10.90;;;3.80;;
57341;SDS011;43175;51.002;18.316;2023-03-05T15:24:58;11.00;;;3.70;;
57341;SDS011;43175;51.002;18.316;2023-03-05T15:27:23;11.80;;;3.80;;
57341;SDS011;43175;51.002;18.316;2023-03-05T15:29:49;11.20;;;4.00;;
57341;SDS011;43175;51.002;18.316;2023-03-05T15:32:14;13.90;;;4.30;;
57341;SDS011;43175;51.002;18.316;2023-03-05T15:34:40;14.30;;;4.20;;
57341;SDS011;43175;51.002;18.316;2023-03-05T15:37:06;11.50;;;3.90;;
57341;SDS011;43175;51.002;18.316;2023-03-05T15:39:31;12.80;;;4.50;;
57341;SDS011;43175;51.002;18.316;2023-03-05T15:41:57;12.90;;;5.30;;
57341;SDS011;43175;51.002;18.316;2023-03-05T15:44:24;12.50;;;4.40;;
57341;SDS011;43175;51.002;18.316;2023-03-05T15:46:50;10.90;;;3.90;;
57341;SDS011;43175;51.002;18.316;2023-03-05T15:49:15;13.70;;;4.60;;
57341;SDS011;43175;51.002;18.316;2023-03-05T15:51:41;12.20;;;4.30;;
57341;SDS011;43175;51.002;18.316;2023-03-05T15:54:06;12.50;;;5.10;;
57341;SDS011;43175;51.002;18.316;2023-03-05T15:56:32;36.80;;;20.20;;